This is the latest recevied weather packets stored in our database for station/object LRSM. If no packets are shown the sender has not sent any weather packets the latest 10 day(s).
| Time | Temp. | Humidity | Pressure | Rain* | Wind** | Luminosity | Snow |
|---|---|---|---|---|---|---|---|
| 1777781913 | 6.11° C | 71% | 1023 hPa | - | - | - | - |
| 1777781035 | 6.11° C | 71% | 1023 hPa | - | - | - | - |
| 1777780114 | 5° C | 70% | 1022 hPa | - | - | - | - |
| 1777779212 | 5° C | 70% | 1022 hPa | - | - | - | - |
| 1777778313 | 5° C | 70% | 1022 hPa | - | - | - | - |
| 1777777412 | 5° C | 70% | 1022 hPa | - | - | - | - |
| 1777776527 | 3.89° C | 70% | 1022 hPa | - | - | - | - |
| 1777775613 | 3.89° C | 70% | 1022 hPa | - | - | - | - |
| 1777774712 | 5° C | 66% | 1022 hPa | - | - | - | - |
| 1777773812 | 5° C | 66% | 1022 hPa | - | - | - | - |
| 1777770213 | 3.89° C | 65% | 1022 hPa | - | - | - | - |
| 1777768412 | 3.89° C | 65% | 1022 hPa | - | - | - | - |
| 1777767512 | 5° C | 66% | 1022 hPa | - | - | - | - |
| 1777764812 | 6.11° C | 57% | 1022 hPa | - | - | - | - |
| 1777763913 | 7.22° C | 57% | 1022 hPa | - | - | - | - |
| 1777761212 | 6.11° C | 61% | 1022 hPa | - | - | - | - |
| 1777758512 | 8.89° C | 54% | 1022 hPa | - | - | - | - |
| 1777757613 | 8.89° C | 54% | 1022 hPa | - | - | - | - |
| 1777756712 | 10° C | 47% | 1022 hPa | - | - | - | - |
| 1777745913 | 13.89° C | 39% | 1020 hPa | - | - | - | - |
| 1777740510 | 18.89° C | 28% | 1020 hPa | - | - | - | - |
| 1777737813 | 20° C | 26% | 1020 hPa | - | - | - | - |
| 1777736918 | 20° C | 28% | 1020 hPa | - | - | - | - |
| 1777736013 | 20° C | 28% | 1020 hPa | - | - | - | - |
| 1777735112 | 18.89° C | 30% | 1020 hPa | - | - | - | - |
* Rain since midnight (hover to see other rain measurements)
** Current wind speed in m/s (hover to see current wind gust speed)